Terminal Aerodrome Forecast
Issued by NWS

Home | Current Version | Previous Version | Text Only | Print | Product List | Glossary On
Versions: 1 2 3 4 5 6 7 8 9 10 11 12 13 14 15 16
000
FTUS43 KMQT 211700
TAFSAW
TAF
KSAW 211733Z 2118/2218 19013G20KT P6SM BKN015 OVC030
      TEMPO 2118/2121 5SM BR
     FM220000 17015G25KT 2SM -SN OVC008
     FM220700 17012G22KT 4SM -SN OVC010
     FM221000 17012KT 3SM BR OVC010
      AMD LTD TO CLD VIS AND WIND 2203/2211=

USA.gov is the U.S. government's official web portal to all federal, state and local government web resources and services.